sensor_id;sensor_type;location;lat;lon;timestamp;P1;durP1;ratioP1;P2;durP2;ratioP2
10293;SDS011;5192;50.328;7.610;2023-05-07T00:02:25;6.33;;;3.80;;
10293;SDS011;5192;50.328;7.610;2023-05-07T00:04:53;7.20;;;4.07;;
10293;SDS011;5192;50.328;7.610;2023-05-07T00:07:21;5.67;;;4.30;;
10293;SDS011;5192;50.328;7.610;2023-05-07T00:09:47;7.73;;;4.63;;
10293;SDS011;5192;50.328;7.610;2023-05-07T00:12:19;4.73;;;4.30;;
10293;SDS011;5192;50.328;7.610;2023-05-07T00:14:47;4.87;;;4.37;;
10293;SDS011;5192;50.328;7.610;2023-05-07T00:17:14;6.13;;;4.37;;
10293;SDS011;5192;50.328;7.610;2023-05-07T00:19:40;6.73;;;4.50;;
10293;SDS011;5192;50.328;7.610;2023-05-07T00:22:08;4.20;;;3.80;;
10293;SDS011;5192;50.328;7.610;2023-05-07T00:24:33;5.20;;;3.80;;
10293;SDS011;5192;50.328;7.610;2023-05-07T00:27:02;7.57;;;4.67;;
10293;SDS011;5192;50.328;7.610;2023-05-07T00:29:30;6.23;;;4.80;;
10293;SDS011;5192;50.328;7.610;2023-05-07T00:31:55;5.23;;;4.73;;
10293;SDS011;5192;50.328;7.610;2023-05-07T00:34:22;5.93;;;4.90;;
10293;SDS011;5192;50.328;7.610;2023-05-07T00:36:50;7.33;;;5.07;;
10293;SDS011;5192;50.328;7.610;2023-05-07T00:39:20;6.60;;;4.63;;
10293;SDS011;5192;50.328;7.610;2023-05-07T00:41:46;7.13;;;5.67;;
10293;SDS011;5192;50.328;7.610;2023-05-07T00:44:14;5.77;;;4.83;;
10293;SDS011;5192;50.328;7.610;2023-05-07T00:46:41;4.93;;;4.50;;
10293;SDS011;5192;50.328;7.610;2023-05-07T00:49:11;5.43;;;4.90;;
10293;SDS011;5192;50.328;7.610;2023-05-07T00:51:37;6.33;;;5.70;;
10293;SDS011;5192;50.328;7.610;2023-05-07T00:54:05;5.20;;;4.43;;
10293;SDS011;5192;50.328;7.610;2023-05-07T00:56:31;4.73;;;3.70;;
10293;SDS011;5192;50.328;7.610;2023-05-07T00:58:57;7.40;;;4.77;;
10293;SDS011;5192;50.328;7.610;2023-05-07T01:01:36;8.10;;;4.77;;
10293;SDS011;5192;50.328;7.610;2023-05-07T01:04:03;6.00;;;4.30;;
10293;SDS011;5192;50.328;7.610;2023-05-07T01:06:30;6.00;;;4.27;;
10293;SDS011;5192;50.328;7.610;2023-05-07T01:08:59;6.87;;;4.17;;
10293;SDS011;5192;50.328;7.610;2023-05-07T01:11:25;5.03;;;4.10;;
10293;SDS011;5192;50.328;7.610;2023-05-07T01:13:53;5.57;;;4.30;;
10293;SDS011;5192;50.328;7.610;2023-05-07T01:16:21;4.80;;;3.93;;
10293;SDS011;5192;50.328;7.610;2023-05-07T01:18:49;10.57;;;4.70;;
10293;SDS011;5192;50.328;7.610;2023-05-07T01:21:16;5.83;;;3.50;;
10293;SDS011;5192;50.328;7.610;2023-05-07T01:23:43;5.30;;;3.30;;
10293;SDS011;5192;50.328;7.610;2023-05-07T01:26:11;4.90;;;3.40;;
10293;SDS011;5192;50.328;7.610;2023-05-07T01:28:40;5.00;;;3.33;;
10293;SDS011;5192;50.328;7.610;2023-05-07T01:31:07;4.00;;;3.37;;
10293;SDS011;5192;50.328;7.610;2023-05-07T01:33:36;5.13;;;3.40;;
10293;SDS011;5192;50.328;7.610;2023-05-07T01:36:07;5.80;;;3.53;;
10293;SDS011;5192;50.328;7.610;2023-05-07T01:38:37;5.27;;;3.50;;
10293;SDS011;5192;50.328;7.610;2023-05-07T01:41:04;6.30;;;3.77;;
10293;SDS011;5192;50.328;7.610;2023-05-07T01:43:30;4.90;;;4.20;;
10293;SDS011;5192;50.328;7.610;2023-05-07T01:45:57;6.43;;;4.07;;
10293;SDS011;5192;50.328;7.610;2023-05-07T01:48:26;5.73;;;3.73;;
10293;SDS011;5192;50.328;7.610;2023-05-07T01:50:55;6.10;;;3.90;;
10293;SDS011;5192;50.328;7.610;2023-05-07T01:53:24;7.33;;;4.00;;
10293;SDS011;5192;50.328;7.610;2023-05-07T01:55:54;6.40;;;3.43;;
10293;SDS011;5192;50.328;7.610;2023-05-07T01:58:21;6.03;;;3.33;;
10293;SDS011;5192;50.328;7.610;2023-05-07T02:00:47;4.73;;;3.83;;
10293;SDS011;5192;50.328;7.610;2023-05-07T02:03:15;7.20;;;4.17;;
10293;SDS011;5192;50.328;7.610;2023-05-07T02:05:44;6.30;;;5.03;;
10293;SDS011;5192;50.328;7.610;2023-05-07T02:08:11;6.70;;;4.17;;
10293;SDS011;5192;50.328;7.610;2023-05-07T02:10:37;7.37;;;4.67;;
10293;SDS011;5192;50.328;7.610;2023-05-07T02:13:04;5.53;;;5.03;;
10293;SDS011;5192;50.328;7.610;2023-05-07T02:15:30;6.00;;;4.70;;
10293;SDS011;5192;50.328;7.610;2023-05-07T02:18:05;6.50;;;4.13;;
10293;SDS011;5192;50.328;7.610;2023-05-07T02:20:33;8.43;;;4.63;;
10293;SDS011;5192;50.328;7.610;2023-05-07T02:23:01;7.27;;;4.43;;
10293;SDS011;5192;50.328;7.610;2023-05-07T02:25:28;5.73;;;3.93;;
10293;SDS011;5192;50.328;7.610;2023-05-07T02:27:55;8.17;;;4.00;;
10293;SDS011;5192;50.328;7.610;2023-05-07T02:30:21;8.50;;;4.10;;
10293;SDS011;5192;50.328;7.610;2023-05-07T02:32:50;7.03;;;4.20;;
10293;SDS011;5192;50.328;7.610;2023-05-07T02:35:15;4.63;;;4.10;;
10293;SDS011;5192;50.328;7.610;2023-05-07T02:37:42;6.73;;;4.03;;
10293;SDS011;5192;50.328;7.610;2023-05-07T02:40:10;4.50;;;3.73;;
10293;SDS011;5192;50.328;7.610;2023-05-07T02:42:37;6.13;;;4.17;;
10293;SDS011;5192;50.328;7.610;2023-05-07T02:45:05;4.83;;;3.50;;
10293;SDS011;5192;50.328;7.610;2023-05-07T02:47:32;6.60;;;3.50;;
10293;SDS011;5192;50.328;7.610;2023-05-07T02:49:58;4.00;;;3.53;;
10293;SDS011;5192;50.328;7.610;2023-05-07T02:52:24;5.77;;;3.70;;
10293;SDS011;5192;50.328;7.610;2023-05-07T02:54:53;3.57;;;3.20;;
10293;SDS011;5192;50.328;7.610;2023-05-07T02:57:19;6.10;;;3.70;;
10293;SDS011;5192;50.328;7.610;2023-05-07T02:59:46;5.27;;;3.40;;
10293;SDS011;5192;50.328;7.610;2023-05-07T03:02:12;3.83;;;3.40;;
10293;SDS011;5192;50.328;7.610;2023-05-07T03:04:39;5.53;;;3.33;;
10293;SDS011;5192;50.328;7.610;2023-05-07T03:07:06;3.70;;;3.40;;
10293;SDS011;5192;50.328;7.610;2023-05-07T03:09:34;4.50;;;3.67;;
10293;SDS011;5192;50.328;7.610;2023-05-07T03:12:00;4.23;;;3.37;;
10293;SDS011;5192;50.328;7.610;2023-05-07T03:14:29;5.07;;;3.47;;
10293;SDS011;5192;50.328;7.610;2023-05-07T03:16:56;4.90;;;3.63;;
10293;SDS011;5192;50.328;7.610;2023-05-07T03:19:23;4.20;;;3.83;;
10293;SDS011;5192;50.328;7.610;2023-05-07T03:21:50;6.37;;;3.80;;
10293;SDS011;5192;50.328;7.610;2023-05-07T03:24:18;5.03;;;3.67;;
10293;SDS011;5192;50.328;7.610;2023-05-07T03:26:45;5.90;;;3.17;;
10293;SDS011;5192;50.328;7.610;2023-05-07T03:29:12;4.90;;;4.03;;
10293;SDS011;5192;50.328;7.610;2023-05-07T03:31:37;4.10;;;3.70;;
10293;SDS011;5192;50.328;7.610;2023-05-07T03:34:04;4.07;;;3.67;;
10293;SDS011;5192;50.328;7.610;2023-05-07T03:36:30;4.67;;;3.70;;
10293;SDS011;5192;50.328;7.610;2023-05-07T03:38:57;8.50;;;4.43;;
10293;SDS011;5192;50.328;7.610;2023-05-07T03:41:25;5.43;;;3.70;;
10293;SDS011;5192;50.328;7.610;2023-05-07T03:43:50;5.33;;;3.97;;
10293;SDS011;5192;50.328;7.610;2023-05-07T03:46:19;4.60;;;4.03;;
10293;SDS011;5192;50.328;7.610;2023-05-07T03:48:46;5.87;;;4.40;;
10293;SDS011;5192;50.328;7.610;2023-05-07T03:51:11;8.53;;;4.13;;
10293;SDS011;5192;50.328;7.610;2023-05-07T03:53:39;6.63;;;4.73;;
10293;SDS011;5192;50.328;7.610;2023-05-07T03:56:08;6.43;;;4.83;;
10293;SDS011;5192;50.328;7.610;2023-05-07T03:58:36;5.00;;;4.50;;
10293;SDS011;5192;50.328;7.610;2023-05-07T04:01:04;5.77;;;4.60;;
10293;SDS011;5192;50.328;7.610;2023-05-07T04:03:31;7.33;;;4.70;;
10293;SDS011;5192;50.328;7.610;2023-05-07T04:05:59;7.80;;;4.10;;
10293;SDS011;5192;50.328;7.610;2023-05-07T04:08:26;6.67;;;4.00;;
10293;SDS011;5192;50.328;7.610;2023-05-07T04:10:57;5.47;;;4.03;;
10293;SDS011;5192;50.328;7.610;2023-05-07T04:13:26;5.33;;;4.40;;
10293;SDS011;5192;50.328;7.610;2023-05-07T04:15:54;5.13;;;4.10;;
10293;SDS011;5192;50.328;7.610;2023-05-07T04:18:22;6.20;;;4.07;;
10293;SDS011;5192;50.328;7.610;2023-05-07T04:20:49;4.93;;;4.20;;
10293;SDS011;5192;50.328;7.610;2023-05-07T04:23:17;5.97;;;4.60;;
10293;SDS011;5192;50.328;7.610;2023-05-07T04:25:45;5.13;;;4.40;;
10293;SDS011;5192;50.328;7.610;2023-05-07T04:28:14;6.73;;;4.20;;
10293;SDS011;5192;50.328;7.610;2023-05-07T04:30:41;11.77;;;4.87;;
10293;SDS011;5192;50.328;7.610;2023-05-07T04:33:09;5.23;;;3.87;;
10293;SDS011;5192;50.328;7.610;2023-05-07T04:35:36;7.73;;;4.50;;
10293;SDS011;5192;50.328;7.610;2023-05-07T04:38:03;6.87;;;5.07;;
10293;SDS011;5192;50.328;7.610;2023-05-07T04:40:30;8.83;;;4.50;;
10293;SDS011;5192;50.328;7.610;2023-05-07T04:42:56;5.67;;;4.63;;
10293;SDS011;5192;50.328;7.610;2023-05-07T04:45:23;6.00;;;5.40;;
10293;SDS011;5192;50.328;7.610;2023-05-07T04:47:52;5.97;;;4.67;;
10293;SDS011;5192;50.328;7.610;2023-05-07T04:50:17;5.10;;;4.60;;
10293;SDS011;5192;50.328;7.610;2023-05-07T04:52:45;7.70;;;4.53;;
10293;SDS011;5192;50.328;7.610;2023-05-07T04:55:11;7.50;;;4.63;;
10293;SDS011;5192;50.328;7.610;2023-05-07T04:57:38;5.57;;;4.57;;
10293;SDS011;5192;50.328;7.610;2023-05-07T05:00:06;5.37;;;4.60;;
10293;SDS011;5192;50.328;7.610;2023-05-07T05:02:40;4.43;;;4.00;;
10293;SDS011;5192;50.328;7.610;2023-05-07T05:05:06;6.03;;;4.13;;
10293;SDS011;5192;50.328;7.610;2023-05-07T05:07:32;5.13;;;4.50;;
10293;SDS011;5192;50.328;7.610;2023-05-07T05:09:59;7.00;;;4.10;;
10293;SDS011;5192;50.328;7.610;2023-05-07T05:12:29;5.13;;;4.27;;
10293;SDS011;5192;50.328;7.610;2023-05-07T05:14:56;6.30;;;4.77;;
10293;SDS011;5192;50.328;7.610;2023-05-07T05:17:22;8.67;;;7.10;;
10293;SDS011;5192;50.328;7.610;2023-05-07T05:19:49;8.73;;;7.83;;
10293;SDS011;5192;50.328;7.610;2023-05-07T05:22:16;6.67;;;5.87;;
10293;SDS011;5192;50.328;7.610;2023-05-07T05:24:43;6.50;;;5.90;;
10293;SDS011;5192;50.328;7.610;2023-05-07T05:27:08;7.70;;;6.50;;
10293;SDS011;5192;50.328;7.610;2023-05-07T05:29:36;8.47;;;6.83;;
10293;SDS011;5192;50.328;7.610;2023-05-07T05:32:04;10.47;;;8.40;;
10293;SDS011;5192;50.328;7.610;2023-05-07T05:34:31;11.23;;;8.70;;
10293;SDS011;5192;50.328;7.610;2023-05-07T05:37:00;11.90;;;8.33;;
10293;SDS011;5192;50.328;7.610;2023-05-07T05:39:27;11.57;;;9.13;;
10293;SDS011;5192;50.328;7.610;2023-05-07T05:41:55;11.57;;;10.37;;
10293;SDS011;5192;50.328;7.610;2023-05-07T05:44:21;10.50;;;8.80;;
10293;SDS011;5192;50.328;7.610;2023-05-07T05:46:50;11.00;;;9.77;;
10293;SDS011;5192;50.328;7.610;2023-05-07T05:49:17;12.33;;;10.93;;
10293;SDS011;5192;50.328;7.610;2023-05-07T05:51:46;11.33;;;10.13;;
10293;SDS011;5192;50.328;7.610;2023-05-07T05:54:13;14.33;;;10.20;;
10293;SDS011;5192;50.328;7.610;2023-05-07T05:56:40;10.50;;;9.37;;
10293;SDS011;5192;50.328;7.610;2023-05-07T05:59:08;9.83;;;8.83;;
10293;SDS011;5192;50.328;7.610;2023-05-07T06:01:35;10.43;;;8.03;;
10293;SDS011;5192;50.328;7.610;2023-05-07T06:04:02;12.63;;;9.60;;
10293;SDS011;5192;50.328;7.610;2023-05-07T06:06:30;9.90;;;9.00;;
10293;SDS011;5192;50.328;7.610;2023-05-07T06:08:56;12.00;;;9.37;;
10293;SDS011;5192;50.328;7.610;2023-05-07T06:11:22;10.60;;;9.13;;
10293;SDS011;5192;50.328;7.610;2023-05-07T06:13:49;9.93;;;7.67;;
10293;SDS011;5192;50.328;7.610;2023-05-07T06:16:15;8.43;;;7.63;;
10293;SDS011;5192;50.328;7.610;2023-05-07T06:18:43;10.27;;;7.80;;
10293;SDS011;5192;50.328;7.610;2023-05-07T06:21:13;11.07;;;8.20;;
10293;SDS011;5192;50.328;7.610;2023-05-07T06:23:41;8.63;;;7.73;;
10293;SDS011;5192;50.328;7.610;2023-05-07T06:26:07;8.43;;;7.63;;
10293;SDS011;5192;50.328;7.610;2023-05-07T06:28:35;8.80;;;7.90;;
10293;SDS011;5192;50.328;7.610;2023-05-07T06:31:16;8.23;;;7.43;;
10293;SDS011;5192;50.328;7.610;2023-05-07T06:33:48;8.27;;;7.43;;
10293;SDS011;5192;50.328;7.610;2023-05-07T06:36:17;8.80;;;7.90;;
10293;SDS011;5192;50.328;7.610;2023-05-07T06:38:43;9.13;;;7.50;;
10293;SDS011;5192;50.328;7.610;2023-05-07T06:41:10;7.73;;;6.70;;
10293;SDS011;5192;50.328;7.610;2023-05-07T06:43:40;6.73;;;6.07;;
10293;SDS011;5192;50.328;7.610;2023-05-07T06:46:08;7.63;;;6.63;;
10293;SDS011;5192;50.328;7.610;2023-05-07T06:48:37;6.90;;;6.10;;
10293;SDS011;5192;50.328;7.610;2023-05-07T06:51:02;5.97;;;5.47;;
10293;SDS011;5192;50.328;7.610;2023-05-07T06:53:31;10.30;;;5.60;;
10293;SDS011;5192;50.328;7.610;2023-05-07T06:56:01;4.60;;;4.30;;
10293;SDS011;5192;50.328;7.610;2023-05-07T06:58:28;3.33;;;3.03;;
10293;SDS011;5192;50.328;7.610;2023-05-07T07:00:55;4.43;;;3.30;;
10293;SDS011;5192;50.328;7.610;2023-05-07T07:03:24;3.83;;;3.37;;
10293;SDS011;5192;50.328;7.610;2023-05-07T07:05:53;3.53;;;2.83;;
10293;SDS011;5192;50.328;7.610;2023-05-07T07:08:20;3.93;;;3.40;;
10293;SDS011;5192;50.328;7.610;2023-05-07T07:10:48;4.13;;;3.47;;
10293;SDS011;5192;50.328;7.610;2023-05-07T07:13:14;4.87;;;3.23;;
10293;SDS011;5192;50.328;7.610;2023-05-07T07:15:41;3.17;;;2.87;;
10293;SDS011;5192;50.328;7.610;2023-05-07T07:18:07;4.47;;;3.40;;
10293;SDS011;5192;50.328;7.610;2023-05-07T07:20:34;4.93;;;3.47;;
10293;SDS011;5192;50.328;7.610;2023-05-07T07:23:02;4.37;;;3.27;;
10293;SDS011;5192;50.328;7.610;2023-05-07T07:25:34;7.47;;;3.53;;
10293;SDS011;5192;50.328;7.610;2023-05-07T07:28:01;5.60;;;3.60;;
10293;SDS011;5192;50.328;7.610;2023-05-07T07:30:27;3.40;;;3.10;;
10293;SDS011;5192;50.328;7.610;2023-05-07T07:32:57;4.60;;;3.35;;
10293;SDS011;5192;50.328;7.610;2023-05-07T07:35:34;4.15;;;3.03;;
10293;SDS011;5192;50.328;7.610;2023-05-07T07:38:01;3.38;;;3.08;;
10293;SDS011;5192;50.328;7.610;2023-05-07T07:40:28;4.90;;;3.00;;
10293;SDS011;5192;50.328;7.610;2023-05-07T07:42:56;4.13;;;2.88;;
10293;SDS011;5192;50.328;7.610;2023-05-07T07:45:26;3.50;;;3.20;;
10293;SDS011;5192;50.328;7.610;2023-05-07T07:47:53;4.88;;;3.20;;
10293;SDS011;5192;50.328;7.610;2023-05-07T07:50:23;2.70;;;2.50;;
10293;SDS011;5192;50.328;7.610;2023-05-07T07:52:50;2.65;;;2.40;;
10293;SDS011;5192;50.328;7.610;2023-05-07T07:55:19;2.70;;;2.50;;
10293;SDS011;5192;50.328;7.610;2023-05-07T07:57:49;4.33;;;2.80;;
10293;SDS011;5192;50.328;7.610;2023-05-07T08:00:19;4.38;;;2.95;;
10293;SDS011;5192;50.328;7.610;2023-05-07T08:02:47;3.38;;;2.47;;
10293;SDS011;5192;50.328;7.610;2023-05-07T08:05:14;4.35;;;2.90;;
10293;SDS011;5192;50.328;7.610;2023-05-07T08:07:43;3.33;;;2.65;;
10293;SDS011;5192;50.328;7.610;2023-05-07T08:10:09;4.53;;;2.53;;
10293;SDS011;5192;50.328;7.610;2023-05-07T08:12:35;4.20;;;2.97;;
10293;SDS011;5192;50.328;7.610;2023-05-07T08:15:03;4.15;;;2.65;;
10293;SDS011;5192;50.328;7.610;2023-05-07T08:17:31;2.80;;;2.60;;
10293;SDS011;5192;50.328;7.610;2023-05-07T08:19:58;2.77;;;2.57;;
10293;SDS011;5192;50.328;7.610;2023-05-07T08:22:24;2.65;;;2.45;;
10293;SDS011;5192;50.328;7.610;2023-05-07T08:24:51;5.60;;;2.30;;
10293;SDS011;5192;50.328;7.610;2023-05-07T08:27:20;3.35;;;2.63;;
10293;SDS011;5192;50.328;7.610;2023-05-07T08:29:46;3.00;;;2.67;;
10293;SDS011;5192;50.328;7.610;2023-05-07T08:32:14;3.15;;;2.85;;
10293;SDS011;5192;50.328;7.610;2023-05-07T08:34:43;5.80;;;4.97;;
10293;SDS011;5192;50.328;7.610;2023-05-07T08:37:11;4.13;;;3.28;;
10293;SDS011;5192;50.328;7.610;2023-05-07T08:39:37;4.18;;;3.05;;
10293;SDS011;5192;50.328;7.610;2023-05-07T08:42:04;3.22;;;2.33;;
10293;SDS011;5192;50.328;7.610;2023-05-07T08:44:35;2.75;;;2.55;;
10293;SDS011;5192;50.328;7.610;2023-05-07T08:47:15;3.92;;;2.53;;
10293;SDS011;5192;50.328;7.610;2023-05-07T08:49:45;4.10;;;3.00;;
10293;SDS011;5192;50.328;7.610;2023-05-07T08:52:12;2.78;;;2.45;;
10293;SDS011;5192;50.328;7.610;2023-05-07T08:54:39;4.85;;;3.00;;
10293;SDS011;5192;50.328;7.610;2023-05-07T08:57:07;4.28;;;2.67;;
10293;SDS011;5192;50.328;7.610;2023-05-07T08:59:35;3.60;;;2.63;;
10293;SDS011;5192;50.328;7.610;2023-05-07T09:02:02;4.03;;;2.45;;
10293;SDS011;5192;50.328;7.610;2023-05-07T09:04:31;3.42;;;2.65;;
10293;SDS011;5192;50.328;7.610;2023-05-07T09:07:01;3.65;;;2.72;;
10293;SDS011;5192;50.328;7.610;2023-05-07T09:09:32;3.50;;;2.40;;
10293;SDS011;5192;50.328;7.610;2023-05-07T09:11:58;3.15;;;2.50;;
10293;SDS011;5192;50.328;7.610;2023-05-07T09:14:26;2.83;;;2.63;;
10293;SDS011;5192;50.328;7.610;2023-05-07T09:16:53;6.53;;;2.70;;
10293;SDS011;5192;50.328;7.610;2023-05-07T09:19:24;3.60;;;2.65;;
10293;SDS011;5192;50.328;7.610;2023-05-07T09:22:03;3.47;;;3.17;;
10293;SDS011;5192;50.328;7.610;2023-05-07T09:24:32;2.50;;;2.30;;
10293;SDS011;5192;50.328;7.610;2023-05-07T09:27:01;2.60;;;2.40;;
10293;SDS011;5192;50.328;7.610;2023-05-07T09:29:29;2.45;;;2.25;;
10293;SDS011;5192;50.328;7.610;2023-05-07T09:32:03;2.83;;;2.63;;
10293;SDS011;5192;50.328;7.610;2023-05-07T09:34:31;3.83;;;2.85;;
10293;SDS011;5192;50.328;7.610;2023-05-07T09:37:01;3.03;;;2.80;;
10293;SDS011;5192;50.328;7.610;2023-05-07T09:39:41;3.15;;;2.83;;
10293;SDS011;5192;50.328;7.610;2023-05-07T09:42:12;4.00;;;2.75;;
10293;SDS011;5192;50.328;7.610;2023-05-07T09:44:43;2.78;;;2.35;;
10293;SDS011;5192;50.328;7.610;2023-05-07T09:47:09;2.80;;;2.60;;
10293;SDS011;5192;50.328;7.610;2023-05-07T09:49:38;2.97;;;2.67;;
10293;SDS011;5192;50.328;7.610;2023-05-07T09:52:05;2.85;;;2.65;;
10293;SDS011;5192;50.328;7.610;2023-05-07T09:54:33;2.63;;;2.40;;
10293;SDS011;5192;50.328;7.610;2023-05-07T09:57:04;2.50;;;2.30;;
10293;SDS011;5192;50.328;7.610;2023-05-07T09:59:37;5.03;;;2.67;;
10293;SDS011;5192;50.328;7.610;2023-05-07T10:02:07;4.57;;;2.70;;
10293;SDS011;5192;50.328;7.610;2023-05-07T10:04:36;4.32;;;2.50;;
10293;SDS011;5192;50.328;7.610;2023-05-07T10:07:02;3.45;;;2.60;;
10293;SDS011;5192;50.328;7.610;2023-05-07T10:09:31;3.58;;;2.80;;
10293;SDS011;5192;50.328;7.610;2023-05-07T10:11:57;3.28;;;2.97;;
10293;SDS011;5192;50.328;7.610;2023-05-07T10:14:24;2.95;;;2.38;;
10293;SDS011;5192;50.328;7.610;2023-05-07T10:16:51;3.70;;;2.63;;
10293;SDS011;5192;50.328;7.610;2023-05-07T10:19:20;6.55;;;2.60;;
10293;SDS011;5192;50.328;7.610;2023-05-07T10:21:59;2.97;;;2.50;;
10293;SDS011;5192;50.328;7.610;2023-05-07T10:24:48;3.75;;;2.35;;
10293;SDS011;5192;50.328;7.610;2023-05-07T10:27:18;3.33;;;2.60;;
10293;SDS011;5192;50.328;7.610;2023-05-07T10:32:49;4.32;;;2.60;;
10293;SDS011;5192;50.328;7.610;2023-05-07T10:35:24;4.40;;;2.78;;
10293;SDS011;5192;50.328;7.610;2023-05-07T10:37:53;2.97;;;2.67;;
10293;SDS011;5192;50.328;7.610;2023-05-07T10:40:20;2.58;;;2.38;;
10293;SDS011;5192;50.328;7.610;2023-05-07T10:43:00;3.80;;;2.45;;
10293;SDS011;5192;50.328;7.610;2023-05-07T10:45:32;3.15;;;2.92;;
10293;SDS011;5192;50.328;7.610;2023-05-07T10:48:17;3.47;;;2.80;;
10293;SDS011;5192;50.328;7.610;2023-05-07T10:50:45;3.15;;;2.60;;
10293;SDS011;5192;50.328;7.610;2023-05-07T10:58:48;2.63;;;2.28;;
10293;SDS011;5192;50.328;7.610;2023-05-07T11:01:15;3.20;;;2.33;;
10293;SDS011;5192;50.328;7.610;2023-05-07T11:04:15;2.90;;;2.63;;
10293;SDS011;5192;50.328;7.610;2023-05-07T11:15:07;2.30;;;2.10;;
10293;SDS011;5192;50.328;7.610;2023-05-07T11:26:10;5.05;;;2.75;;
10293;SDS011;5192;50.328;7.610;2023-05-07T11:28:36;3.33;;;2.72;;
10293;SDS011;5192;50.328;7.610;2023-05-07T11:31:04;3.05;;;2.58;;
10293;SDS011;5192;50.328;7.610;2023-05-07T11:33:33;2.95;;;2.75;;
10293;SDS011;5192;50.328;7.610;2023-05-07T11:36:03;2.83;;;2.47;;
10293;SDS011;5192;50.328;7.610;2023-05-07T11:38:37;2.97;;;2.53;;
10293;SDS011;5192;50.328;7.610;2023-05-07T11:41:05;3.45;;;2.63;;
10293;SDS011;5192;50.328;7.610;2023-05-07T11:43:33;4.13;;;2.70;;
10293;SDS011;5192;50.328;7.610;2023-05-07T11:46:11;2.97;;;2.40;;
10293;SDS011;5192;50.328;7.610;2023-05-07T11:48:41;4.13;;;2.80;;
10293;SDS011;5192;50.328;7.610;2023-05-07T11:51:09;4.53;;;2.67;;
10293;SDS011;5192;50.328;7.610;2023-05-07T11:53:40;4.22;;;2.38;;
10293;SDS011;5192;50.328;7.610;2023-05-07T11:56:11;4.40;;;2.70;;
10293;SDS011;5192;50.328;7.610;2023-05-07T11:58:38;2.85;;;2.40;;
10293;SDS011;5192;50.328;7.610;2023-05-07T12:01:09;2.90;;;2.60;;
10293;SDS011;5192;50.328;7.610;2023-05-07T12:03:36;2.78;;;2.58;;
10293;SDS011;5192;50.328;7.610;2023-05-07T12:06:14;5.22;;;2.75;;
10293;SDS011;5192;50.328;7.610;2023-05-07T12:08:45;7.63;;;4.30;;
10293;SDS011;5192;50.328;7.610;2023-05-07T12:11:22;3.03;;;2.83;;
10293;SDS011;5192;50.328;7.610;2023-05-07T12:13:49;11.07;;;6.03;;
10293;SDS011;5192;50.328;7.610;2023-05-07T12:16:17;4.18;;;2.88;;
10293;SDS011;5192;50.328;7.610;2023-05-07T12:18:49;4.22;;;2.88;;
10293;SDS011;5192;50.328;7.610;2023-05-07T12:21:19;2.75;;;2.45;;
10293;SDS011;5192;50.328;7.610;2023-05-07T12:23:46;5.25;;;3.28;;
10293;SDS011;5192;50.328;7.610;2023-05-07T12:26:16;5.82;;;3.70;;
10293;SDS011;5192;50.328;7.610;2023-05-07T12:28:46;3.97;;;2.83;;
10293;SDS011;5192;50.328;7.610;2023-05-07T12:31:15;3.08;;;2.80;;
10293;SDS011;5192;50.328;7.610;2023-05-07T12:33:42;5.47;;;3.22;;
10293;SDS011;5192;50.328;7.610;2023-05-07T12:36:11;3.17;;;2.90;;
10293;SDS011;5192;50.328;7.610;2023-05-07T12:38:39;3.78;;;2.97;;
10293;SDS011;5192;50.328;7.610;2023-05-07T12:41:11;2.97;;;2.70;;
10293;SDS011;5192;50.328;7.610;2023-05-07T12:43:38;3.17;;;2.90;;
10293;SDS011;5192;50.328;7.610;2023-05-07T12:46:06;4.32;;;2.72;;
10293;SDS011;5192;50.328;7.610;2023-05-07T12:48:44;3.30;;;3.00;;
10293;SDS011;5192;50.328;7.610;2023-05-07T12:51:15;4.95;;;3.20;;
10293;SDS011;5192;50.328;7.610;2023-05-07T12:53:46;3.65;;;3.03;;
10293;SDS011;5192;50.328;7.610;2023-05-07T12:56:15;3.10;;;2.85;;
10293;SDS011;5192;50.328;7.610;2023-05-07T12:58:43;3.22;;;2.92;;
10293;SDS011;5192;50.328;7.610;2023-05-07T13:01:10;4.68;;;3.17;;
10293;SDS011;5192;50.328;7.610;2023-05-07T13:03:41;5.57;;;3.03;;
10293;SDS011;5192;50.328;7.610;2023-05-07T13:06:25;2.90;;;2.70;;
10293;SDS011;5192;50.328;7.610;2023-05-07T13:08:51;3.92;;;2.63;;
10293;SDS011;5192;50.328;7.610;2023-05-07T13:11:18;4.25;;;3.00;;
10293;SDS011;5192;50.328;7.610;2023-05-07T13:13:43;3.72;;;3.00;;
10293;SDS011;5192;50.328;7.610;2023-05-07T13:16:10;3.80;;;2.83;;
10293;SDS011;5192;50.328;7.610;2023-05-07T13:18:38;3.03;;;2.78;;
10293;SDS011;5192;50.328;7.610;2023-05-07T13:21:06;3.58;;;3.10;;
10293;SDS011;5192;50.328;7.610;2023-05-07T13:23:35;2.90;;;2.58;;
10293;SDS011;5192;50.328;7.610;2023-05-07T13:26:05;3.20;;;2.90;;
10293;SDS011;5192;50.328;7.610;2023-05-07T13:28:30;2.88;;;2.65;;
10293;SDS011;5192;50.328;7.610;2023-05-07T13:30:56;3.78;;;3.15;;
10293;SDS011;5192;50.328;7.610;2023-05-07T13:33:24;3.08;;;2.88;;
10293;SDS011;5192;50.328;7.610;2023-05-07T13:35:51;2.75;;;2.55;;
10293;SDS011;5192;50.328;7.610;2023-05-07T13:38:17;5.00;;;3.15;;
10293;SDS011;5192;50.328;7.610;2023-05-07T13:40:45;3.70;;;3.40;;
10293;SDS011;5192;50.328;7.610;2023-05-07T13:43:13;3.83;;;3.00;;
10293;SDS011;5192;50.328;7.610;2023-05-07T13:45:41;3.47;;;2.90;;
10293;SDS011;5192;50.328;7.610;2023-05-07T13:48:09;3.88;;;3.30;;
10293;SDS011;5192;50.328;7.610;2023-05-07T13:50:35;3.42;;;3.00;;
10293;SDS011;5192;50.328;7.610;2023-05-07T13:53:02;2.80;;;2.60;;
10293;SDS011;5192;50.328;7.610;2023-05-07T13:55:30;3.25;;;3.00;;
10293;SDS011;5192;50.328;7.610;2023-05-07T13:57:57;2.90;;;2.70;;
10293;SDS011;5192;50.328;7.610;2023-05-07T14:00:25;3.00;;;2.80;;
10293;SDS011;5192;50.328;7.610;2023-05-07T14:02:54;3.10;;;2.80;;
10293;SDS011;5192;50.328;7.610;2023-05-07T14:05:22;3.03;;;2.83;;
10293;SDS011;5192;50.328;7.610;2023-05-07T14:07:50;3.15;;;2.88;;
10293;SDS011;5192;50.328;7.610;2023-05-07T14:10:20;3.78;;;2.30;;
10293;SDS011;5192;50.328;7.610;2023-05-07T14:12:47;3.00;;;2.80;;
10293;SDS011;5192;50.328;7.610;2023-05-07T14:15:15;3.13;;;2.60;;
10293;SDS011;5192;50.328;7.610;2023-05-07T14:17:43;3.33;;;2.90;;
10293;SDS011;5192;50.328;7.610;2023-05-07T14:20:09;3.03;;;2.72;;
10293;SDS011;5192;50.328;7.610;2023-05-07T14:22:37;2.92;;;2.63;;
10293;SDS011;5192;50.328;7.610;2023-05-07T14:25:05;3.30;;;2.70;;
10293;SDS011;5192;50.328;7.610;2023-05-07T14:27:36;2.55;;;2.35;;
10293;SDS011;5192;50.328;7.610;2023-05-07T14:30:04;2.30;;;2.10;;
10293;SDS011;5192;50.328;7.610;2023-05-07T14:32:32;2.55;;;2.35;;
10293;SDS011;5192;50.328;7.610;2023-05-07T14:34:59;2.47;;;2.05;;
10293;SDS011;5192;50.328;7.610;2023-05-07T14:37:27;4.70;;;2.50;;
10293;SDS011;5192;50.328;7.610;2023-05-07T14:39:54;2.50;;;2.30;;
10293;SDS011;5192;50.328;7.610;2023-05-07T14:42:20;2.20;;;1.95;;
10293;SDS011;5192;50.328;7.610;2023-05-07T14:44:46;2.45;;;2.15;;
10293;SDS011;5192;50.328;7.610;2023-05-07T14:47:14;3.28;;;2.65;;
10293;SDS011;5192;50.328;7.610;2023-05-07T14:49:42;2.28;;;2.17;;
10293;SDS011;5192;50.328;7.610;2023-05-07T14:52:09;2.05;;;1.92;;
10293;SDS011;5192;50.328;7.610;2023-05-07T14:54:38;2.30;;;2.17;;
10293;SDS011;5192;50.328;7.610;2023-05-07T14:57:05;2.72;;;2.30;;
10293;SDS011;5192;50.328;7.610;2023-05-07T14:59:33;2.60;;;2.20;;
10293;SDS011;5192;50.328;7.610;2023-05-07T15:02:02;2.75;;;2.10;;
10293;SDS011;5192;50.328;7.610;2023-05-07T15:04:31;3.33;;;2.63;;
10293;SDS011;5192;50.328;7.610;2023-05-07T15:07:00;2.67;;;2.45;;
10293;SDS011;5192;50.328;7.610;2023-05-07T15:09:28;3.30;;;2.45;;
10293;SDS011;5192;50.328;7.610;2023-05-07T15:11:54;2.53;;;2.38;;
10293;SDS011;5192;50.328;7.610;2023-05-07T15:14:23;3.25;;;2.25;;
10293;SDS011;5192;50.328;7.610;2023-05-07T15:16:51;2.92;;;2.05;;
10293;SDS011;5192;50.328;7.610;2023-05-07T15:19:18;2.55;;;2.35;;
10293;SDS011;5192;50.328;7.610;2023-05-07T15:21:45;2.78;;;2.35;;
10293;SDS011;5192;50.328;7.610;2023-05-07T15:24:11;3.13;;;2.13;;
10293;SDS011;5192;50.328;7.610;2023-05-07T15:26:38;4.00;;;2.17;;
10293;SDS011;5192;50.328;7.610;2023-05-07T15:29:06;2.72;;;2.20;;
10293;SDS011;5192;50.328;7.610;2023-05-07T15:31:35;2.65;;;2.25;;
10293;SDS011;5192;50.328;7.610;2023-05-07T15:34:04;4.35;;;2.47;;